createdAt,value
2023-04-30T00:00:36.140Z,12.70
2023-04-30T00:03:04.579Z,12.60
2023-04-30T00:05:32.389Z,12.60
2023-04-30T00:08:00.027Z,12.60
2023-04-30T00:10:27.656Z,12.60
2023-04-30T00:12:55.642Z,12.60
2023-04-30T00:15:23.426Z,12.60
2023-04-30T00:17:51.153Z,12.50
2023-04-30T00:20:19.201Z,12.50
2023-04-30T00:22:47.090Z,12.50
2023-04-30T00:25:15.791Z,12.40
2023-04-30T00:27:43.573Z,12.40
2023-04-30T00:30:12.090Z,12.40
2023-04-30T00:32:40.973Z,12.40
2023-04-30T00:35:09.349Z,12.30
2023-04-30T00:37:37.060Z,12.30
2023-04-30T00:40:05.185Z,12.30
2023-04-30T00:42:33.148Z,12.20
2023-04-30T00:45:01.541Z,12.20
2023-04-30T00:47:29.413Z,12.20
2023-04-30T00:49:57.150Z,12.20
2023-04-30T00:52:24.943Z,12.10
2023-04-30T00:54:54.267Z,12.10
2023-04-30T00:57:23.292Z,12.00
2023-04-30T00:59:51.373Z,12.00
2023-04-30T01:02:20.227Z,12.00
2023-04-30T01:04:47.961Z,12.00
2023-04-30T01:07:15.719Z,11.90
2023-04-30T01:09:43.354Z,11.90
2023-04-30T01:12:29.112Z,11.90
2023-04-30T01:15:26.871Z,11.90
2023-04-30T01:18:03.442Z,11.80
2023-04-30T01:20:32.259Z,11.80
2023-04-30T01:23:25.176Z,11.70
2023-04-30T01:26:20.170Z,11.70
2023-04-30T01:28:52.174Z,11.70
2023-04-30T01:31:20.252Z,11.70
2023-04-30T01:33:48.123Z,11.70
2023-04-30T01:36:40.723Z,11.70
2023-04-30T01:39:21.088Z,11.70
2023-04-30T01:42:05.126Z,11.70
2023-04-30T01:45:11.148Z,11.60
2023-04-30T01:47:52.749Z,11.60
2023-04-30T01:50:37.404Z,11.60
2023-04-30T01:53:10.544Z,11.60
2023-04-30T01:55:45.352Z,11.50
2023-04-30T01:58:15.080Z,11.50
2023-04-30T02:00:42.817Z,11.50
2023-04-30T02:03:10.789Z,11.50
2023-04-30T02:05:38.534Z,11.50
2023-04-30T02:08:07.116Z,11.50
2023-04-30T02:10:36.907Z,11.40
2023-04-30T02:13:04.543Z,11.40
2023-04-30T02:15:32.576Z,11.40
2023-04-30T02:18:00.432Z,11.40
2023-04-30T02:20:28.346Z,11.30
2023-04-30T02:22:56.146Z,11.40
2023-04-30T02:25:23.697Z,11.40
2023-04-30T02:27:51.431Z,11.40
2023-04-30T02:30:20.870Z,11.30
2023-04-30T02:32:48.415Z,11.30
2023-04-30T02:35:16.069Z,11.30
2023-04-30T02:37:43.804Z,11.30
2023-04-30T02:40:12.070Z,11.30
2023-04-30T02:42:40.093Z,11.30
2023-04-30T02:45:08.610Z,11.30
2023-04-30T02:47:36.619Z,11.20
2023-04-30T02:50:05.533Z,11.20
2023-04-30T02:52:33.002Z,11.20
2023-04-30T02:55:00.417Z,11.20
2023-04-30T02:57:27.829Z,11.20
2023-04-30T02:59:55.442Z,11.20
2023-04-30T03:02:23.649Z,11.10
2023-04-30T03:04:51.821Z,11.10
2023-04-30T03:07:19.338Z,11.10
2023-04-30T03:09:46.818Z,11.10
2023-04-30T03:12:16.944Z,11.10
2023-04-30T03:14:44.354Z,11.00
2023-04-30T03:17:11.831Z,11.00
2023-04-30T03:19:39.823Z,11.00
2023-04-30T03:22:07.364Z,11.00
2023-04-30T03:24:35.127Z,11.00
2023-04-30T03:27:03.388Z,10.90
2023-04-30T03:29:30.859Z,10.90
2023-04-30T03:31:58.754Z,10.90
2023-04-30T03:34:26.506Z,10.90
2023-04-30T03:36:54.171Z,10.90
2023-04-30T03:39:21.636Z,10.90
2023-04-30T03:41:49.190Z,10.90
2023-04-30T03:44:16.766Z,10.80
2023-04-30T03:46:44.446Z,10.90
2023-04-30T03:49:12.149Z,10.80
2023-04-30T03:51:41.947Z,10.80
2023-04-30T03:54:10.324Z,10.80
2023-04-30T03:56:38.323Z,10.80
2023-04-30T03:59:06.520Z,10.80
2023-04-30T04:01:34.209Z,10.80
2023-04-30T04:04:02.521Z,10.80
2023-04-30T04:06:31.992Z,10.70
2023-04-30T04:08:59.707Z,10.70
2023-04-30T04:11:27.404Z,10.70
2023-04-30T04:13:56.637Z,10.80
2023-04-30T04:16:24.278Z,10.70
2023-04-30T04:18:51.925Z,10.60
2023-04-30T04:21:20.430Z,10.60
2023-04-30T04:23:48.352Z,10.60
2023-04-30T04:26:16.654Z,10.60
2023-04-30T04:28:44.518Z,10.50
2023-04-30T04:31:12.881Z,10.50
2023-04-30T04:33:40.461Z,10.50
2023-04-30T04:36:08.584Z,10.40
2023-04-30T04:38:36.249Z,10.40
2023-04-30T04:41:05.268Z,10.40
2023-04-30T04:43:32.941Z,10.40
2023-04-30T04:46:01.729Z,10.40
2023-04-30T04:48:31.010Z,10.40
2023-04-30T04:50:58.670Z,10.30
2023-04-30T04:53:27.392Z,10.30
2023-04-30T04:55:55.177Z,10.30
2023-04-30T04:58:22.782Z,10.30
2023-04-30T05:00:50.258Z,10.30
2023-04-30T05:03:20.991Z,10.30
2023-04-30T05:05:50.595Z,10.20
2023-04-30T05:08:18.517Z,10.20
2023-04-30T05:10:46.078Z,10.20
2023-04-30T05:13:14.452Z,10.20
2023-04-30T05:15:42.024Z,10.20
2023-04-30T05:18:09.684Z,10.20
2023-04-30T05:20:37.408Z,10.20
2023-04-30T05:23:05.048Z,10.20
2023-04-30T05:25:32.661Z,10.20
2023-04-30T05:28:00.301Z,10.20
2023-04-30T05:30:27.973Z,10.20
2023-04-30T05:32:56.920Z,10.20
2023-04-30T05:35:24.846Z,10.30
2023-04-30T05:37:52.517Z,10.30
2023-04-30T05:40:19.994Z,10.30
2023-04-30T05:42:47.490Z,10.30
2023-04-30T05:45:17.189Z,10.30
2023-04-30T05:47:44.867Z,10.30
2023-04-30T05:50:12.506Z,10.30
2023-04-30T05:52:40.262Z,10.30
2023-04-30T05:55:08.618Z,10.40
2023-04-30T05:57:36.835Z,10.40
2023-04-30T06:00:08.573Z,10.40
2023-04-30T06:02:41.986Z,10.40
2023-04-30T06:05:09.646Z,10.50
2023-04-30T06:07:37.286Z,10.50
2023-04-30T06:10:05.485Z,10.50
2023-04-30T06:12:33.303Z,10.60
2023-04-30T06:15:01.249Z,10.60
2023-04-30T06:17:28.865Z,10.70
2023-04-30T06:19:58.418Z,10.70
2023-04-30T06:22:25.837Z,10.80
2023-04-30T06:24:53.225Z,10.90
2023-04-30T06:27:20.752Z,11.00
2023-04-30T06:29:48.213Z,11.00
2023-04-30T06:32:15.762Z,11.10
2023-04-30T06:34:43.378Z,11.20
2023-04-30T06:37:10.955Z,11.20
2023-04-30T06:39:38.319Z,11.30
2023-04-30T06:42:06.012Z,11.40
2023-04-30T06:44:34.007Z,11.50
2023-04-30T06:47:01.879Z,11.50
2023-04-30T06:49:29.266Z,11.60
2023-04-30T06:51:58.526Z,11.70
2023-04-30T06:54:27.734Z,11.70
2023-04-30T06:56:55.518Z,11.80
2023-04-30T06:59:24.418Z,11.90
2023-04-30T07:01:51.962Z,12.00
2023-04-30T07:04:20.049Z,12.00
2023-04-30T07:06:47.540Z,12.10
2023-04-30T07:09:15.699Z,12.20
2023-04-30T07:11:44.290Z,12.20
2023-04-30T07:14:11.716Z,12.30
2023-04-30T07:16:39.125Z,12.40
2023-04-30T07:19:06.886Z,12.40
2023-04-30T07:21:34.378Z,12.50
2023-04-30T07:24:01.957Z,12.60
2023-04-30T07:26:29.532Z,12.70
2023-04-30T07:28:57.031Z,12.80
2023-04-30T07:31:25.987Z,12.80
2023-04-30T07:33:55.328Z,12.90
2023-04-30T07:36:23.217Z,13.00
2023-04-30T07:38:50.867Z,13.10
2023-04-30T07:41:18.870Z,13.20
2023-04-30T07:43:46.513Z,13.30
2023-04-30T07:46:14.064Z,13.40
2023-04-30T07:48:41.529Z,13.40
2023-04-30T07:51:09.256Z,13.50
2023-04-30T07:53:36.656Z,13.60
2023-04-30T07:56:04.782Z,13.70
2023-04-30T07:58:32.227Z,13.80
2023-04-30T08:00:59.783Z,13.90
2023-04-30T08:03:27.536Z,14.00
2023-04-30T08:05:55.313Z,14.10
2023-04-30T08:08:23.050Z,14.10
2023-04-30T08:10:50.684Z,14.30
2023-04-30T08:13:18.404Z,14.30
2023-04-30T08:15:46.370Z,14.50
2023-04-30T08:18:14.094Z,14.50
2023-04-30T08:20:41.894Z,14.70
2023-04-30T08:23:09.657Z,14.80
2023-04-30T08:25:37.542Z,14.90
2023-04-30T08:28:06.519Z,15.00
2023-04-30T08:30:33.922Z,15.10
2023-04-30T08:33:01.563Z,15.20
2023-04-30T08:35:30.086Z,15.30
2023-04-30T08:37:57.624Z,15.40
2023-04-30T08:40:43.621Z,15.50
2023-04-30T08:43:15.513Z,15.60
2023-04-30T08:45:45.636Z,15.70
2023-04-30T08:48:16.579Z,15.80
2023-04-30T08:50:44.506Z,15.90
2023-04-30T08:53:15.014Z,16.00
2023-04-30T08:55:53.464Z,16.00
2023-04-30T08:58:22.023Z,16.10
2023-04-30T09:00:49.618Z,16.20
2023-04-30T09:03:17.383Z,16.30
2023-04-30T09:05:45.195Z,16.50
2023-04-30T09:08:18.551Z,16.60
2023-04-30T09:10:46.674Z,16.70
2023-04-30T09:13:17.396Z,16.80
2023-04-30T09:15:46.754Z,17.00
2023-04-30T09:18:19.634Z,17.00
2023-04-30T09:21:02.012Z,17.10
2023-04-30T09:23:30.386Z,17.20
2023-04-30T09:25:58.737Z,17.20
2023-04-30T09:28:28.824Z,17.30
2023-04-30T09:30:57.825Z,17.30
2023-04-30T09:33:26.293Z,17.30
2023-04-30T09:35:54.158Z,17.40
2023-04-30T09:38:32.805Z,17.40
2023-04-30T09:41:01.917Z,17.50
2023-04-30T09:43:31.127Z,17.50
2023-04-30T09:46:00.052Z,17.60
2023-04-30T09:48:31.631Z,17.60
2023-04-30T09:51:03.668Z,17.70
2023-04-30T09:53:31.408Z,17.70
2023-04-30T09:56:02.929Z,17.80
2023-04-30T09:58:32.600Z,17.90
2023-04-30T10:01:03.898Z,17.90
2023-04-30T10:03:32.225Z,18.00
2023-04-30T10:06:01.006Z,18.10
2023-04-30T10:08:38.167Z,18.20
2023-04-30T10:11:07.539Z,18.30
2023-04-30T10:13:45.673Z,18.40
2023-04-30T10:16:26.602Z,18.40
2023-04-30T10:18:54.536Z,18.60
2023-04-30T10:21:24.683Z,18.60
2023-04-30T10:23:54.255Z,18.70
2023-04-30T10:26:22.855Z,18.80
2023-04-30T10:28:51.918Z,18.90
2023-04-30T10:31:21.550Z,19.10
2023-04-30T10:34:15.410Z,19.20
2023-04-30T10:36:50.942Z,19.30
2023-04-30T10:39:27.658Z,19.40
2023-04-30T10:42:05.624Z,19.50
2023-04-30T10:44:40.235Z,19.60
2023-04-30T10:47:08.359Z,19.70
2023-04-30T10:49:36.038Z,19.80
2023-04-30T10:52:05.001Z,19.90
2023-04-30T10:54:36.802Z,20.00
2023-04-30T10:57:12.621Z,20.20
2023-04-30T10:59:45.263Z,20.30
2023-04-30T11:02:15.411Z,20.50
2023-04-30T11:05:12.858Z,20.60
2023-04-30T11:07:57.574Z,20.70
2023-04-30T11:10:27.414Z,20.80
2023-04-30T11:12:55.965Z,20.90
2023-04-30T11:15:31.806Z,21.10
2023-04-30T11:17:59.654Z,21.30
2023-04-30T11:20:28.263Z,21.40
2023-04-30T11:23:19.561Z,21.50
2023-04-30T11:25:55.734Z,21.70
2023-04-30T11:28:27.883Z,21.80
2023-04-30T11:30:57.495Z,22.00
2023-04-30T11:33:27.159Z,22.10
2023-04-30T11:35:56.379Z,22.30
2023-04-30T11:38:28.118Z,22.40
2023-04-30T11:40:57.553Z,22.60
2023-04-30T11:43:30.006Z,22.70
2023-04-30T11:46:12.649Z,22.80
2023-04-30T11:48:44.933Z,23.00
2023-04-30T11:51:15.268Z,23.10
2023-04-30T11:53:43.418Z,23.30
2023-04-30T11:56:10.908Z,23.40
2023-04-30T11:58:39.315Z,23.40
2023-04-30T12:01:09.486Z,23.40
2023-04-30T12:03:48.358Z,23.40
2023-04-30T12:06:24.716Z,23.40
2023-04-30T12:08:57.003Z,23.30
2023-04-30T12:11:31.976Z,23.20
2023-04-30T12:14:11.060Z,23.20
2023-04-30T12:16:49.287Z,23.10
2023-04-30T12:19:18.328Z,23.10
2023-04-30T12:21:47.410Z,23.00
2023-04-30T12:24:16.702Z,22.90
2023-04-30T12:26:45.010Z,22.80
2023-04-30T12:29:17.570Z,22.80
2023-04-30T12:31:49.013Z,22.80
2023-04-30T12:34:17.180Z,22.80
2023-04-30T12:36:44.863Z,22.90
2023-04-30T12:39:15.936Z,22.90
2023-04-30T12:41:49.560Z,22.90
2023-04-30T12:44:20.144Z,23.00
2023-04-30T12:46:49.245Z,23.10
2023-04-30T12:49:27.723Z,23.10
2023-04-30T12:52:04.267Z,23.20
2023-04-30T12:54:35.007Z,23.30
2023-04-30T12:57:03.810Z,23.30
2023-04-30T12:59:32.743Z,23.40
2023-04-30T13:02:10.936Z,23.50
2023-04-30T13:04:40.089Z,23.60
2023-04-30T13:07:07.698Z,23.60
2023-04-30T13:09:36.768Z,23.60
2023-04-30T13:12:04.810Z,23.60
2023-04-30T13:14:33.089Z,23.70
2023-04-30T13:17:02.679Z,23.60
2023-04-30T13:19:30.482Z,23.70
2023-04-30T13:21:59.071Z,23.60
2023-04-30T13:24:26.658Z,23.60
2023-04-30T13:26:54.490Z,23.60
2023-04-30T13:29:22.107Z,23.60
2023-04-30T13:31:49.907Z,23.60
2023-04-30T13:34:17.673Z,23.70
2023-04-30T13:36:46.872Z,23.70
2023-04-30T13:39:14.409Z,23.70
2023-04-30T13:41:41.809Z,23.80
2023-04-30T13:44:09.515Z,23.80
2023-04-30T13:46:37.149Z,23.90
2023-04-30T13:49:05.620Z,23.90
2023-04-30T13:51:33.151Z,24.00
2023-04-30T13:54:00.580Z,24.10
2023-04-30T13:56:28.271Z,24.20
2023-04-30T13:58:55.641Z,24.30
2023-04-30T14:01:23.218Z,24.30
2023-04-30T14:03:51.382Z,24.50
2023-04-30T14:06:19.475Z,24.60
2023-04-30T14:08:46.928Z,24.70
2023-04-30T14:11:14.461Z,24.80
2023-04-30T14:13:42.226Z,24.80
2023-04-30T14:16:09.859Z,24.90
2023-04-30T14:18:37.408Z,24.90
2023-04-30T14:21:05.050Z,24.80
2023-04-30T14:23:32.469Z,24.90
2023-04-30T14:26:00.035Z,24.90
2023-04-30T14:28:30.067Z,24.90
2023-04-30T14:30:57.611Z,24.90
2023-04-30T14:33:25.709Z,24.90
2023-04-30T14:35:53.548Z,24.90
2023-04-30T14:38:21.187Z,24.80
2023-04-30T14:40:48.536Z,24.80
2023-04-30T14:43:15.988Z,24.70
2023-04-30T14:45:44.961Z,24.60
2023-04-30T14:48:12.841Z,24.60
2023-04-30T14:50:40.270Z,24.50
2023-04-30T14:53:09.422Z,24.40
2023-04-30T14:55:37.890Z,24.20
2023-04-30T14:58:05.660Z,24.10
2023-04-30T15:00:33.300Z,24.00
2023-04-30T15:03:00.865Z,23.80
2023-04-30T15:05:29.389Z,23.70
2023-04-30T15:07:56.870Z,23.60
2023-04-30T15:10:24.350Z,23.50
2023-04-30T15:12:51.685Z,23.40
2023-04-30T15:15:21.255Z,23.30
2023-04-30T15:17:49.181Z,23.20
2023-04-30T15:20:16.660Z,23.10
2023-04-30T15:22:44.560Z,23.10
2023-04-30T15:25:11.961Z,23.10
2023-04-30T15:27:39.816Z,23.00
2023-04-30T15:30:08.097Z,23.00
2023-04-30T15:32:35.534Z,22.90
2023-04-30T15:35:03.478Z,22.80
2023-04-30T15:37:30.973Z,22.80
2023-04-30T15:39:58.469Z,22.80
2023-04-30T15:42:26.031Z,22.70
2023-04-30T15:44:53.437Z,22.70
2023-04-30T15:47:23.883Z,22.60
2023-04-30T15:49:51.497Z,22.60
2023-04-30T15:52:19.203Z,22.60
2023-04-30T15:54:46.703Z,22.50
2023-04-30T15:57:14.823Z,22.40
2023-04-30T15:59:44.914Z,22.30
2023-04-30T16:02:17.243Z,22.20
2023-04-30T16:04:44.696Z,22.20
2023-04-30T16:07:12.448Z,22.10
2023-04-30T16:09:41.454Z,22.00
2023-04-30T16:12:08.957Z,21.90
2023-04-30T16:14:36.414Z,21.80
2023-04-30T16:17:03.929Z,21.70
2023-04-30T16:19:31.570Z,21.60
2023-04-30T16:22:00.726Z,21.50
2023-04-30T16:24:28.399Z,21.50
2023-04-30T16:26:56.284Z,21.40
2023-04-30T16:29:23.703Z,21.30
2023-04-30T16:31:52.138Z,21.20
2023-04-30T16:34:19.571Z,21.10
2023-04-30T16:36:47.241Z,21.10
2023-04-30T16:39:16.983Z,21.00
2023-04-30T16:41:44.818Z,21.00
2023-04-30T16:44:12.323Z,20.90
2023-04-30T16:46:39.829Z,20.80
2023-04-30T16:49:07.324Z,20.80
2023-04-30T16:51:34.902Z,20.80
2023-04-30T16:54:02.777Z,20.70
2023-04-30T16:56:30.350Z,20.70
2023-04-30T16:58:57.874Z,20.70
2023-04-30T17:01:25.367Z,20.60
2023-04-30T17:03:52.930Z,20.60
2023-04-30T17:06:20.623Z,20.60
2023-04-30T17:08:48.095Z,20.50
2023-04-30T17:11:19.157Z,20.50
2023-04-30T17:13:46.941Z,20.40
2023-04-30T17:16:14.461Z,20.40
2023-04-30T17:18:41.879Z,20.30
2023-04-30T17:21:09.336Z,20.30
2023-04-30T17:23:37.036Z,20.20
2023-04-30T17:26:05.635Z,20.20
2023-04-30T17:28:33.253Z,20.10
2023-04-30T17:31:06.608Z,20.10
2023-04-30T17:33:34.302Z,20.00
2023-04-30T17:36:01.867Z,19.80
2023-04-30T17:38:29.362Z,19.90
2023-04-30T17:40:57.761Z,19.80
2023-04-30T17:43:26.557Z,19.80
2023-04-30T17:45:56.283Z,19.70
2023-04-30T17:48:23.830Z,19.70
2023-04-30T17:50:51.328Z,19.60
2023-04-30T17:53:18.906Z,19.50
2023-04-30T17:55:46.607Z,19.50
2023-04-30T17:58:14.875Z,19.40
2023-04-30T18:00:43.647Z,19.30
2023-04-30T18:03:11.304Z,19.30
2023-04-30T18:05:39.682Z,19.20
2023-04-30T18:08:08.149Z,19.20
2023-04-30T18:10:37.160Z,19.10
2023-04-30T18:13:04.836Z,19.10
2023-04-30T18:15:33.137Z,19.00
2023-04-30T18:18:01.036Z,19.00
2023-04-30T18:20:28.606Z,18.90
2023-04-30T18:22:56.047Z,18.90
2023-04-30T18:25:23.697Z,18.80
2023-04-30T18:27:51.339Z,18.80
2023-04-30T18:30:18.806Z,18.70
2023-04-30T18:32:46.387Z,18.70
2023-04-30T18:35:14.062Z,18.70
2023-04-30T18:37:41.479Z,18.60
2023-04-30T18:40:09.581Z,18.60
2023-04-30T18:42:37.708Z,18.50
2023-04-30T18:45:05.597Z,18.50
2023-04-30T18:47:33.678Z,18.40
2023-04-30T18:50:01.265Z,18.40
2023-04-30T18:52:28.910Z,18.30
2023-04-30T18:54:56.494Z,18.30
2023-04-30T18:57:24.255Z,18.20
2023-04-30T18:59:52.058Z,18.20
2023-04-30T19:02:21.896Z,18.10
2023-04-30T19:04:50.457Z,18.10
2023-04-30T19:07:18.556Z,18.00
2023-04-30T19:09:48.398Z,18.00
2023-04-30T19:12:16.109Z,18.00
2023-04-30T19:14:44.397Z,17.90
2023-04-30T19:17:14.927Z,17.90
2023-04-30T19:19:43.523Z,17.80
2023-04-30T19:22:11.748Z,17.80
2023-04-30T19:24:39.181Z,17.70
2023-04-30T19:27:06.723Z,17.60
2023-04-30T19:29:34.176Z,17.50
2023-04-30T19:32:04.277Z,17.50
2023-04-30T19:34:32.136Z,17.50
2023-04-30T19:36:59.629Z,17.30
2023-04-30T19:39:31.702Z,17.30
2023-04-30T19:41:59.302Z,17.20
2023-04-30T19:44:29.206Z,17.10
2023-04-30T19:46:56.718Z,17.00
2023-04-30T19:49:26.233Z,17.00
2023-04-30T19:51:54.829Z,17.00
2023-04-30T19:54:22.443Z,16.80
2023-04-30T19:56:52.663Z,16.80
2023-04-30T19:59:21.516Z,16.80
2023-04-30T20:01:48.987Z,16.70
2023-04-30T20:04:16.694Z,16.70
2023-04-30T20:06:44.969Z,16.60
2023-04-30T20:09:12.550Z,16.60
2023-04-30T20:11:40.197Z,16.60
2023-04-30T20:14:08.159Z,16.60
2023-04-30T20:16:35.813Z,16.60
2023-04-30T20:19:04.208Z,16.50
2023-04-30T20:21:32.099Z,16.60
2023-04-30T20:24:00.064Z,16.50
2023-04-30T20:26:27.644Z,16.50
2023-04-30T20:28:55.194Z,16.50
2023-04-30T20:31:22.796Z,16.50
2023-04-30T20:33:50.490Z,16.50
2023-04-30T20:36:18.179Z,16.40
2023-04-30T20:38:45.633Z,16.40
2023-04-30T20:41:13.751Z,16.40
2023-04-30T20:43:41.523Z,16.40
2023-04-30T20:46:09.799Z,16.40
2023-04-30T20:48:37.181Z,16.40
2023-04-30T20:51:04.644Z,16.40
2023-04-30T20:53:32.610Z,16.30
2023-04-30T20:56:01.456Z,16.30
2023-04-30T20:58:28.944Z,16.30
2023-04-30T21:00:57.130Z,16.20
2023-04-30T21:03:24.923Z,16.30
2023-04-30T21:05:52.547Z,16.20
2023-04-30T21:08:19.977Z,16.20
2023-04-30T21:10:47.973Z,16.20
2023-04-30T21:13:16.965Z,16.20
2023-04-30T21:15:45.415Z,16.10
2023-04-30T21:18:12.984Z,16.10
2023-04-30T21:20:40.709Z,16.10
2023-04-30T21:23:08.212Z,16.10
2023-04-30T21:25:38.159Z,16.00
2023-04-30T21:28:06.462Z,16.00
2023-04-30T21:30:35.682Z,16.00
2023-04-30T21:33:03.908Z,16.00
2023-04-30T21:35:33.130Z,15.90
2023-04-30T21:38:01.090Z,15.90
2023-04-30T21:40:33.624Z,15.90
2023-04-30T21:43:01.518Z,15.90
2023-04-30T21:45:29.313Z,15.80
2023-04-30T21:47:57.113Z,15.80
2023-04-30T21:50:24.773Z,15.80
2023-04-30T21:52:52.874Z,15.80
2023-04-30T21:55:20.651Z,15.70
2023-04-30T21:57:51.071Z,15.70
2023-04-30T22:00:18.818Z,15.70
2023-04-30T22:02:49.642Z,15.60
2023-04-30T22:05:19.103Z,15.60
2023-04-30T22:07:47.423Z,15.60
2023-04-30T22:10:15.535Z,15.50
2023-04-30T22:12:46.266Z,15.60
2023-04-30T22:15:15.501Z,15.50
2023-04-30T22:17:43.577Z,15.50
2023-04-30T22:20:11.545Z,15.40
2023-04-30T22:22:39.061Z,15.40
2023-04-30T22:25:07.595Z,15.40
2023-04-30T22:27:35.147Z,15.40
2023-04-30T22:30:02.683Z,15.40
2023-04-30T22:32:30.382Z,15.30
2023-04-30T22:34:58.006Z,15.30
2023-04-30T22:37:26.423Z,15.30
2023-04-30T22:39:53.951Z,15.30
2023-04-30T22:42:21.819Z,15.30
2023-04-30T22:44:50.271Z,15.30
2023-04-30T22:47:18.401Z,15.20
2023-04-30T22:49:46.074Z,15.20
2023-04-30T22:52:14.182Z,15.20
2023-04-30T22:54:45.566Z,15.10
2023-04-30T22:57:13.370Z,15.10
2023-04-30T22:59:41.280Z,15.10
2023-04-30T23:02:10.279Z,15.10
2023-04-30T23:04:37.766Z,15.00
2023-04-30T23:07:05.343Z,15.00
2023-04-30T23:09:33.893Z,15.00
2023-04-30T23:12:05.686Z,15.00
2023-04-30T23:14:54.310Z,15.00
2023-04-30T23:17:23.372Z,14.90
2023-04-30T23:19:51.354Z,14.90
2023-04-30T23:22:18.932Z,14.90
2023-04-30T23:24:46.684Z,14.90
2023-04-30T23:27:14.333Z,14.90
2023-04-30T23:29:42.984Z,14.80
2023-04-30T23:32:10.850Z,14.80
2023-04-30T23:34:38.429Z,14.80
2023-04-30T23:37:06.020Z,14.80
2023-04-30T23:39:33.610Z,14.80
2023-04-30T23:42:01.026Z,14.80
2023-04-30T23:44:31.699Z,14.70
2023-04-30T23:47:01.144Z,14.70
2023-04-30T23:49:28.646Z,14.70
2023-04-30T23:51:56.030Z,14.70
2023-04-30T23:54:23.508Z,14.60
2023-04-30T23:56:51.040Z,14.60
2023-04-30T23:59:18.408Z,14.60
